KLSE/LSE METAR and TAF weather

Enter ICAO airport designator
Station Type Date Time Source
KLSE METAR 2019/05/27 08:53 UTC NOAA

KLSE 270853Z AUTO 12003KT 10SM CLR 14/11 A2998 RMK AO2 SLP148 T01440111 56010


Station Type Date Time Source
KLSE Decoded METAR 2019/05/27 08:53 UTC NOAA

LA CROSSE MUNICIPAL AIRPORT , WI, United States (KLSE) 43-53N 091-15W 200M
May 27, 2019 - 04:53 AM EDT / 2019.05.27 0853 UTC
Wind: from the ESE (120 degrees) at 3 MPH (3 KT):0
Visibility: 10 mile(s):0
Sky conditions: clear
Temperature: 57.9 F (14.4 C)
Dew Point: 52.0 F (11.1 C)
Relative Humidity: 80%
Pressure (altimeter): 29.98 in. Hg (1015 hPa)
Pressure tendency: 0.03 inches (1.0 hPa) lower than three hours ago
ob: KLSE 270853Z AUTO 12003KT 10SM CLR 14/11 A2998 RMK AO2 SLP148 T01440111 56010
cycle: 9

Station Type Date Time Source
KLSE TAF 2019/05/27 06:22 UTC NOAA

TAF KLSE 270520Z 2706/2806 12003KT P6SM BKN250
FM271400 12008KT 6SM -SHRA BKN060
FM271600 10012KT 4SM -SHRA OVC018
FM280000 36008KT P6SM OVC009

Example: see airport list